sensor_id;sensor_type;location;lat;lon;timestamp;P1;durP1;ratioP1;P2;durP2;ratioP2
61685;SDS011;47592;45.904;8.978;2024-02-21T00:01:07;3.22;;;0.90;;
61685;SDS011;47592;45.904;8.978;2024-02-21T00:03:32;3.85;;;1.08;;
61685;SDS011;47592;45.904;8.978;2024-02-21T00:06:00;4.28;;;0.93;;
61685;SDS011;47592;45.904;8.978;2024-02-21T00:08:25;3.60;;;1.05;;
61685;SDS011;47592;45.904;8.978;2024-02-21T00:10:51;3.50;;;1.10;;
61685;SDS011;47592;45.904;8.978;2024-02-21T00:13:16;4.40;;;0.93;;
61685;SDS011;47592;45.904;8.978;2024-02-21T00:15:42;3.65;;;1.20;;
61685;SDS011;47592;45.904;8.978;2024-02-21T00:18:07;3.85;;;1.10;;
61685;SDS011;47592;45.904;8.978;2024-02-21T00:20:32;4.50;;;1.15;;
61685;SDS011;47592;45.904;8.978;2024-02-21T00:22:58;4.15;;;1.25;;
61685;SDS011;47592;45.904;8.978;2024-02-21T00:25:25;4.28;;;1.20;;
61685;SDS011;47592;45.904;8.978;2024-02-21T00:27:51;5.22;;;1.30;;
61685;SDS011;47592;45.904;8.978;2024-02-21T00:30:16;8.50;;;2.13;;
61685;SDS011;47592;45.904;8.978;2024-02-21T00:32:42;6.53;;;1.67;;
61685;SDS011;47592;45.904;8.978;2024-02-21T00:35:07;6.40;;;2.05;;
61685;SDS011;47592;45.904;8.978;2024-02-21T00:37:33;4.97;;;1.40;;
61685;SDS011;47592;45.904;8.978;2024-02-21T00:40:03;4.47;;;1.40;;
61685;SDS011;47592;45.904;8.978;2024-02-21T00:42:32;5.43;;;1.45;;
61685;SDS011;47592;45.904;8.978;2024-02-21T00:44:57;5.47;;;1.52;;
61685;SDS011;47592;45.904;8.978;2024-02-21T00:47:25;5.03;;;1.40;;
61685;SDS011;47592;45.904;8.978;2024-02-21T00:49:51;6.25;;;1.25;;
61685;SDS011;47592;45.904;8.978;2024-02-21T00:52:19;5.18;;;1.55;;
61685;SDS011;47592;45.904;8.978;2024-02-21T00:54:47;5.07;;;1.45;;
61685;SDS011;47592;45.904;8.978;2024-02-21T00:59:41;3.65;;;1.20;;
61685;SDS011;47592;45.904;8.978;2024-02-21T01:02:07;4.43;;;1.20;;
61685;SDS011;47592;45.904;8.978;2024-02-21T01:04:34;4.32;;;1.45;;
61685;SDS011;47592;45.904;8.978;2024-02-21T01:06:59;4.07;;;1.20;;
61685;SDS011;47592;45.904;8.978;2024-02-21T01:09:25;4.20;;;1.40;;
61685;SDS011;47592;45.904;8.978;2024-02-21T01:11:50;3.65;;;1.30;;
61685;SDS011;47592;45.904;8.978;2024-02-21T01:14:16;9.90;;;2.17;;
61685;SDS011;47592;45.904;8.978;2024-02-21T01:16:41;6.25;;;1.83;;
61685;SDS011;47592;45.904;8.978;2024-02-21T01:19:06;7.00;;;1.70;;
61685;SDS011;47592;45.904;8.978;2024-02-21T01:21:35;6.05;;;1.55;;
61685;SDS011;47592;45.904;8.978;2024-02-21T01:24:00;5.93;;;2.20;;
61685;SDS011;47592;45.904;8.978;2024-02-21T01:26:25;4.80;;;1.65;;
61685;SDS011;47592;45.904;8.978;2024-02-21T01:28:53;4.63;;;1.80;;
61685;SDS011;47592;45.904;8.978;2024-02-21T01:31:18;4.80;;;1.65;;
61685;SDS011;47592;45.904;8.978;2024-02-21T01:33:46;4.85;;;1.70;;
61685;SDS011;47592;45.904;8.978;2024-02-21T01:36:11;5.15;;;1.63;;
61685;SDS011;47592;45.904;8.978;2024-02-21T01:38:40;7.18;;;1.90;;
61685;SDS011;47592;45.904;8.978;2024-02-21T01:41:07;7.75;;;2.13;;
61685;SDS011;47592;45.904;8.978;2024-02-21T01:43:35;8.80;;;2.05;;
61685;SDS011;47592;45.904;8.978;2024-02-21T01:46:01;5.45;;;1.70;;
61685;SDS011;47592;45.904;8.978;2024-02-21T01:48:30;6.15;;;1.60;;
61685;SDS011;47592;45.904;8.978;2024-02-21T01:50:55;6.65;;;1.70;;
61685;SDS011;47592;45.904;8.978;2024-02-21T01:53:23;5.65;;;1.65;;
61685;SDS011;47592;45.904;8.978;2024-02-21T01:56:02;6.30;;;1.70;;
61685;SDS011;47592;45.904;8.978;2024-02-21T01:58:28;7.50;;;2.00;;
61685;SDS011;47592;45.904;8.978;2024-02-21T02:00:54;6.07;;;2.10;;
61685;SDS011;47592;45.904;8.978;2024-02-21T02:03:21;5.28;;;1.90;;
61685;SDS011;47592;45.904;8.978;2024-02-21T02:05:47;6.30;;;1.90;;
61685;SDS011;47592;45.904;8.978;2024-02-21T02:08:14;5.18;;;1.98;;
61685;SDS011;47592;45.904;8.978;2024-02-21T02:10:40;6.22;;;2.15;;
61685;SDS011;47592;45.904;8.978;2024-02-21T02:13:06;5.78;;;1.92;;
61685;SDS011;47592;45.904;8.978;2024-02-21T02:15:39;6.53;;;1.92;;
61685;SDS011;47592;45.904;8.978;2024-02-21T02:18:13;6.75;;;1.90;;
61685;SDS011;47592;45.904;8.978;2024-02-21T02:20:41;6.03;;;1.88;;
61685;SDS011;47592;45.904;8.978;2024-02-21T02:25:53;5.93;;;1.80;;
61685;SDS011;47592;45.904;8.978;2024-02-21T02:28:21;6.85;;;2.00;;
61685;SDS011;47592;45.904;8.978;2024-02-21T02:30:47;5.10;;;1.65;;
61685;SDS011;47592;45.904;8.978;2024-02-21T02:33:15;6.65;;;1.77;;
61685;SDS011;47592;45.904;8.978;2024-02-21T02:35:43;5.22;;;1.77;;
61685;SDS011;47592;45.904;8.978;2024-02-21T02:38:08;6.18;;;1.85;;
61685;SDS011;47592;45.904;8.978;2024-02-21T02:40:35;5.00;;;1.65;;
61685;SDS011;47592;45.904;8.978;2024-02-21T02:43:00;5.82;;;1.60;;
61685;SDS011;47592;45.904;8.978;2024-02-21T02:45:26;5.90;;;1.95;;
61685;SDS011;47592;45.904;8.978;2024-02-21T02:47:52;5.47;;;1.67;;
61685;SDS011;47592;45.904;8.978;2024-02-21T02:50:19;5.40;;;1.55;;
61685;SDS011;47592;45.904;8.978;2024-02-21T02:52:45;4.30;;;1.27;;
61685;SDS011;47592;45.904;8.978;2024-02-21T02:55:13;4.82;;;1.63;;
61685;SDS011;47592;45.904;8.978;2024-02-21T02:57:38;5.63;;;1.63;;
61685;SDS011;47592;45.904;8.978;2024-02-21T03:00:04;4.97;;;1.40;;
61685;SDS011;47592;45.904;8.978;2024-02-21T03:02:31;4.00;;;1.48;;
61685;SDS011;47592;45.904;8.978;2024-02-21T03:04:57;6.72;;;1.60;;
61685;SDS011;47592;45.904;8.978;2024-02-21T03:07:27;5.30;;;1.70;;
61685;SDS011;47592;45.904;8.978;2024-02-21T03:09:52;4.90;;;1.67;;
61685;SDS011;47592;45.904;8.978;2024-02-21T03:12:20;5.82;;;1.60;;
61685;SDS011;47592;45.904;8.978;2024-02-21T03:14:52;5.05;;;1.40;;
61685;SDS011;47592;45.904;8.978;2024-02-21T03:17:18;5.72;;;1.70;;
61685;SDS011;47592;45.904;8.978;2024-02-21T03:19:43;4.78;;;1.40;;
61685;SDS011;47592;45.904;8.978;2024-02-21T03:22:11;3.80;;;1.30;;
61685;SDS011;47592;45.904;8.978;2024-02-21T03:24:42;5.43;;;1.60;;
61685;SDS011;47592;45.904;8.978;2024-02-21T03:27:07;6.28;;;1.70;;
61685;SDS011;47592;45.904;8.978;2024-02-21T03:29:33;5.43;;;1.75;;
61685;SDS011;47592;45.904;8.978;2024-02-21T03:32:01;5.97;;;2.47;;
61685;SDS011;47592;45.904;8.978;2024-02-21T03:34:26;4.80;;;1.45;;
61685;SDS011;47592;45.904;8.978;2024-02-21T03:36:59;5.20;;;1.42;;
61685;SDS011;47592;45.904;8.978;2024-02-21T03:39:25;5.40;;;1.55;;
61685;SDS011;47592;45.904;8.978;2024-02-21T03:41:50;6.07;;;1.80;;
61685;SDS011;47592;45.904;8.978;2024-02-21T03:44:16;4.28;;;1.52;;
61685;SDS011;47592;45.904;8.978;2024-02-21T03:46:41;4.88;;;1.60;;
61685;SDS011;47592;45.904;8.978;2024-02-21T03:49:11;4.88;;;1.58;;
61685;SDS011;47592;45.904;8.978;2024-02-21T03:51:39;5.13;;;1.50;;
61685;SDS011;47592;45.904;8.978;2024-02-21T03:54:05;4.32;;;1.50;;
61685;SDS011;47592;45.904;8.978;2024-02-21T03:56:32;4.93;;;1.40;;
61685;SDS011;47592;45.904;8.978;2024-02-21T03:58:58;6.07;;;1.55;;
61685;SDS011;47592;45.904;8.978;2024-02-21T04:01:25;3.75;;;1.42;;
61685;SDS011;47592;45.904;8.978;2024-02-21T04:03:53;4.55;;;1.60;;
61685;SDS011;47592;45.904;8.978;2024-02-21T04:06:21;4.05;;;1.40;;
61685;SDS011;47592;45.904;8.978;2024-02-21T04:08:46;4.45;;;1.70;;
61685;SDS011;47592;45.904;8.978;2024-02-21T04:11:12;4.00;;;1.52;;
61685;SDS011;47592;45.904;8.978;2024-02-21T04:13:37;4.05;;;1.33;;
61685;SDS011;47592;45.904;8.978;2024-02-21T04:16:02;4.70;;;1.35;;
61685;SDS011;47592;45.904;8.978;2024-02-21T04:18:32;4.93;;;1.30;;
61685;SDS011;47592;45.904;8.978;2024-02-21T04:20:57;5.00;;;1.50;;
61685;SDS011;47592;45.904;8.978;2024-02-21T04:23:22;3.55;;;1.20;;
61685;SDS011;47592;45.904;8.978;2024-02-21T04:25:50;4.00;;;1.13;;
61685;SDS011;47592;45.904;8.978;2024-02-21T04:28:15;4.20;;;1.20;;
61685;SDS011;47592;45.904;8.978;2024-02-21T04:30:51;3.75;;;1.20;;
61685;SDS011;47592;45.904;8.978;2024-02-21T04:33:16;3.97;;;1.30;;
61685;SDS011;47592;45.904;8.978;2024-02-21T04:35:44;5.32;;;1.85;;
61685;SDS011;47592;45.904;8.978;2024-02-21T04:40:40;4.18;;;1.20;;
61685;SDS011;47592;45.904;8.978;2024-02-21T04:43:05;5.05;;;1.70;;
61685;SDS011;47592;45.904;8.978;2024-02-21T04:45:30;4.15;;;1.20;;
61685;SDS011;47592;45.904;8.978;2024-02-21T04:48:00;4.32;;;1.40;;
61685;SDS011;47592;45.904;8.978;2024-02-21T04:50:28;5.22;;;1.50;;
61685;SDS011;47592;45.904;8.978;2024-02-21T04:52:54;6.65;;;1.58;;
61685;SDS011;47592;45.904;8.978;2024-02-21T04:55:19;4.53;;;1.60;;
61685;SDS011;47592;45.904;8.978;2024-02-21T04:57:44;7.20;;;1.50;;
61685;SDS011;47592;45.904;8.978;2024-02-21T05:00:10;4.55;;;1.60;;
61685;SDS011;47592;45.904;8.978;2024-02-21T05:02:38;4.18;;;1.55;;
61685;SDS011;47592;45.904;8.978;2024-02-21T05:05:03;3.70;;;1.25;;
61685;SDS011;47592;45.904;8.978;2024-02-21T05:07:29;7.85;;;1.75;;
61685;SDS011;47592;45.904;8.978;2024-02-21T05:09:54;6.03;;;1.50;;
61685;SDS011;47592;45.904;8.978;2024-02-21T05:12:22;4.53;;;1.70;;
61685;SDS011;47592;45.904;8.978;2024-02-21T05:14:47;5.28;;;1.52;;
61685;SDS011;47592;45.904;8.978;2024-02-21T05:17:13;5.32;;;1.80;;
61685;SDS011;47592;45.904;8.978;2024-02-21T05:19:38;4.65;;;1.50;;
61685;SDS011;47592;45.904;8.978;2024-02-21T05:22:03;6.85;;;1.63;;
61685;SDS011;47592;45.904;8.978;2024-02-21T05:24:29;4.30;;;1.67;;
61685;SDS011;47592;45.904;8.978;2024-02-21T05:26:57;5.03;;;1.70;;
61685;SDS011;47592;45.904;8.978;2024-02-21T05:29:22;8.35;;;2.17;;
61685;SDS011;47592;45.904;8.978;2024-02-21T05:34:19;4.93;;;1.80;;
61685;SDS011;47592;45.904;8.978;2024-02-21T05:36:44;5.63;;;1.80;;
61685;SDS011;47592;45.904;8.978;2024-02-21T05:39:11;5.55;;;2.00;;
61685;SDS011;47592;45.904;8.978;2024-02-21T05:41:40;4.90;;;1.88;;
61685;SDS011;47592;45.904;8.978;2024-02-21T05:44:05;6.72;;;2.42;;
61685;SDS011;47592;45.904;8.978;2024-02-21T05:46:31;8.98;;;1.90;;
61685;SDS011;47592;45.904;8.978;2024-02-21T05:48:59;5.45;;;2.05;;
61685;SDS011;47592;45.904;8.978;2024-02-21T05:51:26;5.53;;;1.90;;
61685;SDS011;47592;45.904;8.978;2024-02-21T05:53:52;8.00;;;1.80;;
61685;SDS011;47592;45.904;8.978;2024-02-21T05:56:20;5.43;;;1.90;;
61685;SDS011;47592;45.904;8.978;2024-02-21T05:58:45;5.85;;;1.70;;
61685;SDS011;47592;45.904;8.978;2024-02-21T06:01:15;6.10;;;1.60;;
61685;SDS011;47592;45.904;8.978;2024-02-21T06:03:41;5.65;;;1.75;;
61685;SDS011;47592;45.904;8.978;2024-02-21T06:06:06;4.57;;;1.60;;
61685;SDS011;47592;45.904;8.978;2024-02-21T06:08:34;5.57;;;1.92;;
61685;SDS011;47592;45.904;8.978;2024-02-21T06:11:02;5.20;;;1.60;;
61685;SDS011;47592;45.904;8.978;2024-02-21T06:13:27;6.20;;;1.70;;
61685;SDS011;47592;45.904;8.978;2024-02-21T06:15:55;5.47;;;1.92;;
61685;SDS011;47592;45.904;8.978;2024-02-21T06:18:23;5.97;;;1.77;;
61685;SDS011;47592;45.904;8.978;2024-02-21T06:20:48;8.80;;;1.80;;
61685;SDS011;47592;45.904;8.978;2024-02-21T06:23:15;6.28;;;1.80;;
61685;SDS011;47592;45.904;8.978;2024-02-21T06:25:44;5.35;;;1.77;;
61685;SDS011;47592;45.904;8.978;2024-02-21T06:28:12;5.97;;;1.90;;
61685;SDS011;47592;45.904;8.978;2024-02-21T06:30:38;6.10;;;2.10;;
61685;SDS011;47592;45.904;8.978;2024-02-21T06:33:05;5.55;;;1.70;;
61685;SDS011;47592;45.904;8.978;2024-02-21T06:35:33;6.95;;;2.22;;
61685;SDS011;47592;45.904;8.978;2024-02-21T06:38:01;4.93;;;1.70;;
61685;SDS011;47592;45.904;8.978;2024-02-21T06:40:26;6.15;;;2.22;;
61685;SDS011;47592;45.904;8.978;2024-02-21T06:42:54;6.50;;;2.13;;
61685;SDS011;47592;45.904;8.978;2024-02-21T06:45:19;8.23;;;2.53;;
61685;SDS011;47592;45.904;8.978;2024-02-21T06:47:46;11.05;;;3.90;;
61685;SDS011;47592;45.904;8.978;2024-02-21T06:50:12;8.50;;;2.92;;
61685;SDS011;47592;45.904;8.978;2024-02-21T06:52:40;10.93;;;2.90;;
61685;SDS011;47592;45.904;8.978;2024-02-21T06:55:05;8.65;;;3.25;;
61685;SDS011;47592;45.904;8.978;2024-02-21T06:57:31;6.72;;;2.67;;
61685;SDS011;47592;45.904;8.978;2024-02-21T06:59:58;8.35;;;2.70;;
61685;SDS011;47592;45.904;8.978;2024-02-21T07:02:24;7.68;;;2.88;;
61685;SDS011;47592;45.904;8.978;2024-02-21T07:04:49;5.20;;;2.13;;
61685;SDS011;47592;45.904;8.978;2024-02-21T07:07:19;5.35;;;2.00;;
61685;SDS011;47592;45.904;8.978;2024-02-21T07:09:45;6.13;;;1.70;;
61685;SDS011;47592;45.904;8.978;2024-02-21T07:12:13;5.93;;;1.63;;
61685;SDS011;47592;45.904;8.978;2024-02-21T07:14:38;5.63;;;1.60;;
61685;SDS011;47592;45.904;8.978;2024-02-21T07:17:04;5.22;;;1.60;;
61685;SDS011;47592;45.904;8.978;2024-02-21T07:19:32;5.63;;;1.70;;
61685;SDS011;47592;45.904;8.978;2024-02-21T07:21:57;3.80;;;1.40;;
61685;SDS011;47592;45.904;8.978;2024-02-21T07:24:22;7.57;;;1.63;;
61685;SDS011;47592;45.904;8.978;2024-02-21T07:26:48;9.95;;;1.40;;
61685;SDS011;47592;45.904;8.978;2024-02-21T07:29:13;5.20;;;1.40;;
61685;SDS011;47592;45.904;8.978;2024-02-21T07:31:41;5.32;;;1.40;;
61685;SDS011;47592;45.904;8.978;2024-02-21T07:34:07;3.90;;;1.35;;
61685;SDS011;47592;45.904;8.978;2024-02-21T07:36:35;4.28;;;1.30;;
61685;SDS011;47592;45.904;8.978;2024-02-21T07:39:02;5.82;;;1.60;;
61685;SDS011;47592;45.904;8.978;2024-02-21T07:41:29;6.72;;;1.60;;
61685;SDS011;47592;45.904;8.978;2024-02-21T07:43:55;3.88;;;1.40;;
61685;SDS011;47592;45.904;8.978;2024-02-21T07:46:24;5.50;;;1.50;;
61685;SDS011;47592;45.904;8.978;2024-02-21T07:48:51;6.80;;;1.42;;
61685;SDS011;47592;45.904;8.978;2024-02-21T07:51:19;3.63;;;1.20;;
61685;SDS011;47592;45.904;8.978;2024-02-21T07:53:44;4.95;;;1.10;;
61685;SDS011;47592;45.904;8.978;2024-02-21T07:56:11;4.50;;;1.40;;
61685;SDS011;47592;45.904;8.978;2024-02-21T07:58:37;4.25;;;1.50;;
61685;SDS011;47592;45.904;8.978;2024-02-21T08:01:02;4.38;;;1.25;;
61685;SDS011;47592;45.904;8.978;2024-02-21T08:03:30;4.00;;;1.52;;
61685;SDS011;47592;45.904;8.978;2024-02-21T08:05:55;6.55;;;1.33;;
61685;SDS011;47592;45.904;8.978;2024-02-21T08:08:21;3.90;;;1.25;;
61685;SDS011;47592;45.904;8.978;2024-02-21T08:10:47;10.32;;;1.50;;
61685;SDS011;47592;45.904;8.978;2024-02-21T08:13:17;4.13;;;1.50;;
61685;SDS011;47592;45.904;8.978;2024-02-21T08:15:43;4.45;;;1.20;;
61685;SDS011;47592;45.904;8.978;2024-02-21T08:18:08;4.05;;;1.33;;
61685;SDS011;47592;45.904;8.978;2024-02-21T08:20:34;5.03;;;1.35;;
61685;SDS011;47592;45.904;8.978;2024-02-21T08:23:00;4.50;;;1.45;;
61685;SDS011;47592;45.904;8.978;2024-02-21T08:25:25;4.20;;;1.40;;
61685;SDS011;47592;45.904;8.978;2024-02-21T08:27:51;4.30;;;1.65;;
61685;SDS011;47592;45.904;8.978;2024-02-21T08:30:19;5.95;;;1.33;;
61685;SDS011;47592;45.904;8.978;2024-02-21T08:32:45;4.78;;;1.45;;
61685;SDS011;47592;45.904;8.978;2024-02-21T08:35:13;6.15;;;1.58;;
61685;SDS011;47592;45.904;8.978;2024-02-21T08:37:38;7.60;;;1.60;;
61685;SDS011;47592;45.904;8.978;2024-02-21T08:40:04;7.20;;;3.00;;
61685;SDS011;47592;45.904;8.978;2024-02-21T08:42:34;6.55;;;3.03;;
61685;SDS011;47592;45.904;8.978;2024-02-21T08:45:00;6.35;;;2.33;;
61685;SDS011;47592;45.904;8.978;2024-02-21T08:47:26;6.95;;;2.88;;
61685;SDS011;47592;45.904;8.978;2024-02-21T08:49:55;6.13;;;2.67;;
61685;SDS011;47592;45.904;8.978;2024-02-21T08:52:20;6.95;;;2.80;;
61685;SDS011;47592;45.904;8.978;2024-02-21T08:54:48;5.25;;;2.03;;
61685;SDS011;47592;45.904;8.978;2024-02-21T08:57:14;5.78;;;2.40;;
61685;SDS011;47592;45.904;8.978;2024-02-21T09:02:14;5.95;;;1.67;;
61685;SDS011;47592;45.904;8.978;2024-02-21T09:04:43;4.80;;;1.70;;
61685;SDS011;47592;45.904;8.978;2024-02-21T09:07:09;5.07;;;1.45;;
61685;SDS011;47592;45.904;8.978;2024-02-21T09:09:35;8.32;;;3.53;;
61685;SDS011;47592;45.904;8.978;2024-02-21T09:12:06;8.32;;;2.63;;
61685;SDS011;47592;45.904;8.978;2024-02-21T09:14:37;4.32;;;1.70;;
61685;SDS011;47592;45.904;8.978;2024-02-21T09:17:08;4.72;;;1.50;;
61685;SDS011;47592;45.904;8.978;2024-02-21T09:19:33;5.03;;;1.58;;
61685;SDS011;47592;45.904;8.978;2024-02-21T09:22:00;4.38;;;1.65;;
61685;SDS011;47592;45.904;8.978;2024-02-21T09:24:25;4.72;;;1.80;;
61685;SDS011;47592;45.904;8.978;2024-02-21T09:26:53;8.30;;;2.13;;
61685;SDS011;47592;45.904;8.978;2024-02-21T09:29:18;5.90;;;2.08;;
61685;SDS011;47592;45.904;8.978;2024-02-21T09:31:44;5.70;;;1.70;;
61685;SDS011;47592;45.904;8.978;2024-02-21T09:34:10;6.22;;;2.00;;
61685;SDS011;47592;45.904;8.978;2024-02-21T09:36:36;5.88;;;2.15;;
61685;SDS011;47592;45.904;8.978;2024-02-21T09:39:01;5.22;;;1.98;;
61685;SDS011;47592;45.904;8.978;2024-02-21T09:41:27;6.15;;;2.45;;
61685;SDS011;47592;45.904;8.978;2024-02-21T09:43:55;6.30;;;2.90;;
61685;SDS011;47592;45.904;8.978;2024-02-21T09:51:38;12.57;;;7.70;;
61685;SDS011;47592;45.904;8.978;2024-02-21T09:54:07;7.05;;;3.45;;
61685;SDS011;47592;45.904;8.978;2024-02-21T09:56:33;9.20;;;5.10;;
61685;SDS011;47592;45.904;8.978;2024-02-21T09:58:58;6.65;;;3.75;;
61685;SDS011;47592;45.904;8.978;2024-02-21T10:01:24;7.55;;;4.00;;
61685;SDS011;47592;45.904;8.978;2024-02-21T10:03:49;5.82;;;2.42;;
61685;SDS011;47592;45.904;8.978;2024-02-21T10:06:17;5.40;;;2.17;;
61685;SDS011;47592;45.904;8.978;2024-02-21T10:08:43;5.53;;;2.20;;
61685;SDS011;47592;45.904;8.978;2024-02-21T10:11:08;3.97;;;1.48;;
61685;SDS011;47592;45.904;8.978;2024-02-21T10:13:35;4.68;;;1.23;;
61685;SDS011;47592;45.904;8.978;2024-02-21T10:16:07;5.40;;;1.85;;
61685;SDS011;47592;45.904;8.978;2024-02-21T10:18:33;6.35;;;1.80;;
61685;SDS011;47592;45.904;8.978;2024-02-21T10:21:08;5.85;;;1.63;;
61685;SDS011;47592;45.904;8.978;2024-02-21T10:23:45;6.50;;;1.60;;
61685;SDS011;47592;45.904;8.978;2024-02-21T10:26:14;4.97;;;1.35;;
61685;SDS011;47592;45.904;8.978;2024-02-21T10:28:43;5.47;;;1.70;;
61685;SDS011;47592;45.904;8.978;2024-02-21T10:31:20;8.18;;;2.22;;
61685;SDS011;47592;45.904;8.978;2024-02-21T10:33:53;6.43;;;2.20;;
61685;SDS011;47592;45.904;8.978;2024-02-21T10:36:22;17.48;;;8.32;;
61685;SDS011;47592;45.904;8.978;2024-02-21T10:38:52;25.40;;;13.57;;
61685;SDS011;47592;45.904;8.978;2024-02-21T10:41:21;26.95;;;14.27;;
61685;SDS011;47592;45.904;8.978;2024-02-21T10:43:53;25.35;;;14.95;;
61685;SDS011;47592;45.904;8.978;2024-02-21T10:46:22;32.15;;;17.25;;
61685;SDS011;47592;45.904;8.978;2024-02-21T10:48:51;27.48;;;16.27;;
61685;SDS011;47592;45.904;8.978;2024-02-21T10:51:27;30.83;;;17.35;;
61685;SDS011;47592;45.904;8.978;2024-02-21T10:57:03;30.55;;;16.77;;
61685;SDS011;47592;45.904;8.978;2024-02-21T10:59:29;32.50;;;17.73;;
61685;SDS011;47592;45.904;8.978;2024-02-21T11:01:56;30.02;;;17.30;;
61685;SDS011;47592;45.904;8.978;2024-02-21T11:04:22;31.67;;;18.15;;
61685;SDS011;47592;45.904;8.978;2024-02-21T11:06:47;31.25;;;19.38;;
61685;SDS011;47592;45.904;8.978;2024-02-21T11:09:13;32.28;;;18.27;;
61685;SDS011;47592;45.904;8.978;2024-02-21T11:11:39;34.53;;;19.85;;
61685;SDS011;47592;45.904;8.978;2024-02-21T11:16:48;34.25;;;19.63;;
61685;SDS011;47592;45.904;8.978;2024-02-21T11:19:22;34.20;;;18.58;;
61685;SDS011;47592;45.904;8.978;2024-02-21T11:21:50;31.08;;;17.80;;
61685;SDS011;47592;45.904;8.978;2024-02-21T11:24:29;35.25;;;19.92;;
61685;SDS011;47592;45.904;8.978;2024-02-21T11:27:18;34.55;;;21.58;;
61685;SDS011;47592;45.904;8.978;2024-02-21T11:29:57;35.42;;;20.63;;
61685;SDS011;47592;45.904;8.978;2024-02-21T11:32:24;34.33;;;21.00;;
61685;SDS011;47592;45.904;8.978;2024-02-21T11:37:27;34.78;;;21.45;;
61685;SDS011;47592;45.904;8.978;2024-02-21T11:39:53;34.78;;;21.42;;
61685;SDS011;47592;45.904;8.978;2024-02-21T11:42:21;35.05;;;21.35;;
61685;SDS011;47592;45.904;8.978;2024-02-21T11:44:49;35.38;;;21.45;;
61685;SDS011;47592;45.904;8.978;2024-02-21T11:47:15;37.35;;;20.50;;
61685;SDS011;47592;45.904;8.978;2024-02-21T11:49:45;34.42;;;21.10;;
61685;SDS011;47592;45.904;8.978;2024-02-21T11:52:12;35.90;;;22.60;;
61685;SDS011;47592;45.904;8.978;2024-02-21T11:54:40;37.77;;;21.93;;
61685;SDS011;47592;45.904;8.978;2024-02-21T11:57:06;36.85;;;22.27;;
61685;SDS011;47592;45.904;8.978;2024-02-21T11:59:32;35.40;;;22.08;;
61685;SDS011;47592;45.904;8.978;2024-02-21T12:02:03;37.15;;;22.73;;
61685;SDS011;47592;45.904;8.978;2024-02-21T12:04:29;41.53;;;23.17;;
61685;SDS011;47592;45.904;8.978;2024-02-21T12:06:56;35.13;;;22.58;;
61685;SDS011;47592;45.904;8.978;2024-02-21T12:09:23;36.28;;;22.23;;
61685;SDS011;47592;45.904;8.978;2024-02-21T12:12:10;36.20;;;21.17;;
61685;SDS011;47592;45.904;8.978;2024-02-21T12:14:35;36.63;;;21.80;;
61685;SDS011;47592;45.904;8.978;2024-02-21T12:17:00;35.85;;;22.45;;
61685;SDS011;47592;45.904;8.978;2024-02-21T12:19:29;33.67;;;21.77;;
61685;SDS011;47592;45.904;8.978;2024-02-21T12:21:56;34.00;;;21.35;;
61685;SDS011;47592;45.904;8.978;2024-02-21T12:24:25;34.53;;;21.00;;
61685;SDS011;47592;45.904;8.978;2024-02-21T12:26:54;33.72;;;21.27;;
61685;SDS011;47592;45.904;8.978;2024-02-21T12:29:23;33.92;;;21.00;;
61685;SDS011;47592;45.904;8.978;2024-02-21T12:31:50;36.80;;;22.02;;
61685;SDS011;47592;45.904;8.978;2024-02-21T12:34:18;36.27;;;22.20;;
61685;SDS011;47592;45.904;8.978;2024-02-21T12:36:45;38.28;;;23.20;;
61685;SDS011;47592;45.904;8.978;2024-02-21T12:39:13;38.38;;;23.90;;
61685;SDS011;47592;45.904;8.978;2024-02-21T12:41:39;40.78;;;24.70;;
61685;SDS011;47592;45.904;8.978;2024-02-21T12:44:09;38.92;;;23.88;;
61685;SDS011;47592;45.904;8.978;2024-02-21T12:46:36;38.50;;;23.83;;
61685;SDS011;47592;45.904;8.978;2024-02-21T12:49:02;38.33;;;24.50;;
61685;SDS011;47592;45.904;8.978;2024-02-21T12:51:31;40.47;;;24.77;;
61685;SDS011;47592;45.904;8.978;2024-02-21T12:53:59;39.53;;;23.40;;
61685;SDS011;47592;45.904;8.978;2024-02-21T12:56:24;34.47;;;22.25;;
61685;SDS011;47592;45.904;8.978;2024-02-21T12:58:52;37.17;;;23.73;;
61685;SDS011;47592;45.904;8.978;2024-02-21T13:01:18;36.15;;;21.85;;
61685;SDS011;47592;45.904;8.978;2024-02-21T13:03:43;40.40;;;24.27;;
61685;SDS011;47592;45.904;8.978;2024-02-21T13:06:11;38.42;;;23.90;;
61685;SDS011;47592;45.904;8.978;2024-02-21T13:08:37;42.13;;;26.38;;
61685;SDS011;47592;45.904;8.978;2024-02-21T13:11:03;41.70;;;26.08;;
61685;SDS011;47592;45.904;8.978;2024-02-21T13:13:31;45.45;;;27.38;;
61685;SDS011;47592;45.904;8.978;2024-02-21T13:16:00;40.35;;;25.67;;
61685;SDS011;47592;45.904;8.978;2024-02-21T13:18:28;36.53;;;23.83;;
61685;SDS011;47592;45.904;8.978;2024-02-21T13:20:57;37.00;;;23.95;;
61685;SDS011;47592;45.904;8.978;2024-02-21T13:23:23;36.90;;;21.98;;
61685;SDS011;47592;45.904;8.978;2024-02-21T13:25:48;38.33;;;24.77;;
61685;SDS011;47592;45.904;8.978;2024-02-21T13:28:14;37.33;;;24.17;;
61685;SDS011;47592;45.904;8.978;2024-02-21T13:30:41;37.50;;;23.92;;
61685;SDS011;47592;45.904;8.978;2024-02-21T13:33:09;39.10;;;24.33;;
61685;SDS011;47592;45.904;8.978;2024-02-21T13:35:35;39.80;;;25.00;;
61685;SDS011;47592;45.904;8.978;2024-02-21T13:38:03;37.35;;;24.77;;
61685;SDS011;47592;45.904;8.978;2024-02-21T13:40:29;37.05;;;24.38;;
61685;SDS011;47592;45.904;8.978;2024-02-21T13:42:55;37.55;;;24.15;;
61685;SDS011;47592;45.904;8.978;2024-02-21T13:45:23;36.97;;;23.88;;
61685;SDS011;47592;45.904;8.978;2024-02-21T13:47:51;36.67;;;23.02;;
61685;SDS011;47592;45.904;8.978;2024-02-21T13:50:16;38.80;;;23.75;;
61685;SDS011;47592;45.904;8.978;2024-02-21T13:52:45;34.22;;;22.50;;
61685;SDS011;47592;45.904;8.978;2024-02-21T13:55:13;35.45;;;23.10;;
61685;SDS011;47592;45.904;8.978;2024-02-21T13:57:38;40.38;;;24.67;;
61685;SDS011;47592;45.904;8.978;2024-02-21T14:00:04;41.35;;;24.40;;
61685;SDS011;47592;45.904;8.978;2024-02-21T14:02:30;38.10;;;24.15;;
61685;SDS011;47592;45.904;8.978;2024-02-21T14:04:55;38.75;;;25.17;;
61685;SDS011;47592;45.904;8.978;2024-02-21T14:07:21;41.00;;;25.38;;
61685;SDS011;47592;45.904;8.978;2024-02-21T14:09:47;38.97;;;24.80;;
61685;SDS011;47592;45.904;8.978;2024-02-21T14:12:12;42.75;;;25.27;;
61685;SDS011;47592;45.904;8.978;2024-02-21T14:14:41;40.00;;;24.98;;
61685;SDS011;47592;45.904;8.978;2024-02-21T14:17:09;41.40;;;26.95;;
61685;SDS011;47592;45.904;8.978;2024-02-21T14:19:34;41.10;;;27.30;;
61685;SDS011;47592;45.904;8.978;2024-02-21T14:21:59;41.70;;;26.40;;
61685;SDS011;47592;45.904;8.978;2024-02-21T14:24:25;41.38;;;25.55;;
61685;SDS011;47592;45.904;8.978;2024-02-21T14:26:50;40.80;;;25.92;;
61685;SDS011;47592;45.904;8.978;2024-02-21T14:29:19;40.17;;;25.98;;
61685;SDS011;47592;45.904;8.978;2024-02-21T14:31:47;41.20;;;26.50;;
61685;SDS011;47592;45.904;8.978;2024-02-21T14:34:12;42.00;;;26.67;;
61685;SDS011;47592;45.904;8.978;2024-02-21T14:36:40;43.72;;;27.75;;
61685;SDS011;47592;45.904;8.978;2024-02-21T14:39:06;43.75;;;27.13;;
61685;SDS011;47592;45.904;8.978;2024-02-21T14:41:31;41.90;;;26.98;;
61685;SDS011;47592;45.904;8.978;2024-02-21T14:43:57;41.28;;;26.13;;
61685;SDS011;47592;45.904;8.978;2024-02-21T14:46:25;41.42;;;25.98;;
61685;SDS011;47592;45.904;8.978;2024-02-21T14:48:53;40.20;;;25.65;;
61685;SDS011;47592;45.904;8.978;2024-02-21T14:51:19;43.50;;;25.75;;
61685;SDS011;47592;45.904;8.978;2024-02-21T14:53:47;51.22;;;25.75;;
61685;SDS011;47592;45.904;8.978;2024-02-21T14:56:13;41.75;;;26.10;;
61685;SDS011;47592;45.904;8.978;2024-02-21T14:58:45;40.80;;;25.67;;
61685;SDS011;47592;45.904;8.978;2024-02-21T15:01:12;36.60;;;23.85;;
61685;SDS011;47592;45.904;8.978;2024-02-21T15:03:38;40.90;;;24.48;;
61685;SDS011;47592;45.904;8.978;2024-02-21T15:06:03;39.65;;;24.80;;